createdAt,value
2022-09-13T00:00:36.967Z,21.59
2022-09-13T00:03:03.554Z,21.57
2022-09-13T00:05:29.893Z,21.57
2022-09-13T00:07:56.178Z,21.55
2022-09-13T00:10:22.593Z,21.56
2022-09-13T00:12:48.967Z,21.55
2022-09-13T00:15:16.809Z,21.55
2022-09-13T00:17:43.057Z,21.53
2022-09-13T00:20:09.538Z,21.52
2022-09-13T00:22:35.857Z,21.50
2022-09-13T00:25:02.132Z,21.49
2022-09-13T00:27:28.385Z,21.49
2022-09-13T00:29:54.813Z,21.47
2022-09-13T00:32:21.124Z,21.46
2022-09-13T00:34:47.392Z,21.44
2022-09-13T00:37:13.684Z,21.43
2022-09-13T00:39:40.058Z,21.42
2022-09-13T00:42:06.377Z,21.40
2022-09-13T00:44:32.738Z,21.40
2022-09-13T00:46:59.036Z,21.38
2022-09-13T00:49:25.963Z,21.37
2022-09-13T00:51:52.260Z,21.35
2022-09-13T00:54:18.621Z,21.34
2022-09-13T00:56:45.027Z,21.33
2022-09-13T00:59:14.422Z,21.32
2022-09-13T01:01:40.690Z,21.31
2022-09-13T01:04:11.970Z,21.30
2022-09-13T01:06:38.920Z,21.29
2022-09-13T01:09:05.287Z,21.25
2022-09-13T01:11:31.566Z,21.24
2022-09-13T01:13:57.825Z,21.23
2022-09-13T01:16:24.138Z,21.21
2022-09-13T01:18:50.678Z,21.20
2022-09-13T01:21:17.014Z,21.18
2022-09-13T01:23:43.501Z,21.17
2022-09-13T01:26:09.806Z,21.16
2022-09-13T01:28:36.136Z,21.15
2022-09-13T01:31:02.716Z,21.14
2022-09-13T01:33:29.697Z,21.13
2022-09-13T01:35:56.000Z,21.12
2022-09-13T01:38:22.306Z,21.11
2022-09-13T01:40:48.799Z,21.11
2022-09-13T01:43:15.191Z,21.10
2022-09-13T01:45:41.725Z,21.09
2022-09-13T01:48:08.095Z,21.09
2022-09-13T01:50:34.805Z,21.09
2022-09-13T01:53:01.810Z,21.08
2022-09-13T01:55:28.228Z,21.08
2022-09-13T01:57:54.581Z,21.08
2022-09-13T02:00:20.840Z,21.06
2022-09-13T02:02:47.594Z,21.05
2022-09-13T02:05:13.834Z,21.05
2022-09-13T02:07:40.145Z,21.02
2022-09-13T02:10:06.420Z,21.02
2022-09-13T02:12:32.759Z,21.01
2022-09-13T02:14:59.060Z,21.00
2022-09-13T02:17:25.780Z,20.98
2022-09-13T02:19:52.039Z,20.98
2022-09-13T02:22:18.386Z,20.96
2022-09-13T02:24:44.699Z,20.96
2022-09-13T02:27:11.046Z,20.95
2022-09-13T02:29:37.405Z,20.94
2022-09-13T02:32:03.744Z,20.92
2022-09-13T02:34:30.065Z,20.92
2022-09-13T02:36:56.321Z,20.92
2022-09-13T02:39:23.222Z,20.92
2022-09-13T02:41:49.818Z,20.90
2022-09-13T02:44:16.113Z,20.89
2022-09-13T02:46:42.346Z,20.88
2022-09-13T02:49:08.662Z,20.88
2022-09-13T02:51:35.081Z,20.87
2022-09-13T02:54:01.945Z,20.86
2022-09-13T02:56:28.233Z,20.85
2022-09-13T02:58:54.541Z,20.84
2022-09-13T03:01:20.932Z,20.85
2022-09-13T03:03:47.370Z,20.83
2022-09-13T03:06:13.679Z,20.82
2022-09-13T03:08:39.966Z,20.82
2022-09-13T03:11:06.617Z,20.80
2022-09-13T03:13:33.153Z,20.80
2022-09-13T03:15:59.379Z,20.79
2022-09-13T03:18:25.637Z,20.79
2022-09-13T03:20:52.013Z,20.79
2022-09-13T03:23:18.346Z,20.78
2022-09-13T03:25:44.622Z,20.77
2022-09-13T03:28:10.888Z,20.78
2022-09-13T03:30:37.202Z,20.77
2022-09-13T03:33:03.695Z,20.78
2022-09-13T03:35:30.538Z,20.77
2022-09-13T03:37:56.924Z,20.77
2022-09-13T03:40:23.265Z,20.76
2022-09-13T03:42:49.561Z,20.77
2022-09-13T03:45:15.893Z,20.75
2022-09-13T03:47:42.714Z,20.75
2022-09-13T03:50:09.019Z,20.75
2022-09-13T03:52:35.325Z,20.75
2022-09-13T03:55:01.645Z,20.74
2022-09-13T03:57:27.974Z,20.74
2022-09-13T03:59:54.213Z,20.73
2022-09-13T04:02:20.735Z,20.73
2022-09-13T04:04:47.635Z,20.72
2022-09-13T04:07:13.969Z,20.71
2022-09-13T04:09:40.255Z,20.71
2022-09-13T04:12:06.551Z,20.71
2022-09-13T04:14:34.015Z,20.71
2022-09-13T04:17:00.288Z,20.71
2022-09-13T04:19:27.154Z,20.70
2022-09-13T04:21:53.842Z,20.69
2022-09-13T04:24:20.257Z,20.69
2022-09-13T04:26:48.604Z,20.69
2022-09-13T04:29:15.137Z,20.68
2022-09-13T04:31:41.631Z,20.68
2022-09-13T04:34:15.567Z,20.68
2022-09-13T04:36:49.627Z,20.68
2022-09-13T04:39:16.410Z,20.59
2022-09-13T04:41:42.740Z,20.69
2022-09-13T04:44:09.028Z,20.67
2022-09-13T04:46:35.343Z,20.68
2022-09-13T04:49:01.751Z,20.69
2022-09-13T04:51:29.589Z,20.67
2022-09-13T04:53:57.297Z,20.67
2022-09-13T04:56:25.414Z,20.67
2022-09-13T04:58:52.096Z,20.66
2022-09-13T05:01:27.797Z,20.66
2022-09-13T05:04:01.835Z,20.65
2022-09-13T05:06:31.318Z,20.64
2022-09-13T05:08:59.006Z,20.63
2022-09-13T05:11:26.777Z,20.63
2022-09-13T05:16:41.186Z,20.63
2022-09-13T05:19:07.800Z,20.64
2022-09-13T05:21:42.055Z,20.64
2022-09-13T05:24:17.451Z,20.64
2022-09-13T05:26:45.068Z,20.65
2022-09-13T05:29:11.453Z,20.65
2022-09-13T05:31:37.889Z,20.59
2022-09-13T05:34:04.148Z,20.65
2022-09-13T05:36:34.355Z,20.66
2022-09-13T05:41:47.569Z,20.65
2022-09-13T05:44:14.082Z,20.66
2022-09-13T05:46:41.606Z,20.64
2022-09-13T05:49:07.850Z,20.65
2022-09-13T05:51:34.140Z,20.64
2022-09-13T05:54:00.423Z,20.64
2022-09-13T05:56:26.936Z,20.65
2022-09-13T05:58:53.242Z,20.67
2022-09-13T06:01:20.651Z,20.67
2022-09-13T06:03:47.044Z,20.68
2022-09-13T06:06:13.338Z,20.68
2022-09-13T06:08:40.213Z,20.69
2022-09-13T06:11:06.536Z,20.70
2022-09-13T06:13:33.036Z,20.70
2022-09-13T06:16:00.184Z,20.71
2022-09-13T06:18:26.902Z,20.71
2022-09-13T06:20:53.528Z,20.63
2022-09-13T06:23:19.790Z,20.72
2022-09-13T06:25:46.463Z,20.71
2022-09-13T06:28:13.263Z,20.70
2022-09-13T06:30:40.302Z,20.71
2022-09-13T06:33:06.841Z,20.72
2022-09-13T06:35:33.374Z,20.72
2022-09-13T06:37:59.808Z,20.71
2022-09-13T06:40:26.137Z,20.70
2022-09-13T06:42:52.480Z,20.68
2022-09-13T06:45:18.773Z,20.68
2022-09-13T06:47:45.165Z,20.66
2022-09-13T06:50:11.400Z,20.66
2022-09-13T06:52:38.383Z,20.65
2022-09-13T06:55:04.629Z,20.65
2022-09-13T06:57:30.837Z,20.64
2022-09-13T06:59:57.253Z,20.63
2022-09-13T07:02:23.849Z,20.63
2022-09-13T07:04:51.484Z,20.61
2022-09-13T07:07:17.734Z,20.61
2022-09-13T07:09:44.107Z,20.61
2022-09-13T07:12:10.509Z,20.61
2022-09-13T07:14:36.870Z,20.60
2022-09-13T07:17:03.833Z,20.60
2022-09-13T07:19:31.410Z,20.61
2022-09-13T07:21:58.277Z,20.61
2022-09-13T07:24:25.082Z,20.61
2022-09-13T07:26:52.101Z,20.61
2022-09-13T07:29:18.685Z,20.62
2022-09-13T07:31:44.986Z,20.63
2022-09-13T07:34:11.387Z,20.65
2022-09-13T07:36:39.487Z,20.68
2022-09-13T07:39:08.978Z,20.75
2022-09-13T07:41:37.452Z,20.80
2022-09-13T07:44:04.255Z,20.88
2022-09-13T07:46:31.377Z,20.90
2022-09-13T07:48:57.723Z,20.92
2022-09-13T07:51:24.201Z,20.92
2022-09-13T07:53:53.738Z,20.91
2022-09-13T07:56:22.711Z,20.94
2022-09-13T07:58:49.189Z,21.01
2022-09-13T08:01:15.778Z,21.10
2022-09-13T08:03:42.167Z,21.20
2022-09-13T08:06:08.678Z,21.27
2022-09-13T08:08:34.973Z,21.36
2022-09-13T08:11:01.273Z,21.46
2022-09-13T08:13:28.828Z,21.53
2022-09-13T08:15:55.202Z,21.63
2022-09-13T08:18:21.702Z,21.75
2022-09-13T08:20:48.675Z,22.27
2022-09-13T08:23:15.288Z,22.56
2022-09-13T08:25:41.634Z,22.37
2022-09-13T08:28:08.054Z,22.24
2022-09-13T08:30:35.326Z,22.22
2022-09-13T08:33:02.962Z,22.22
2022-09-13T08:35:29.411Z,22.30
2022-09-13T08:37:55.935Z,22.26
2022-09-13T08:40:22.267Z,22.22
2022-09-13T08:42:48.748Z,22.23
2022-09-13T08:45:15.285Z,22.22
2022-09-13T08:47:41.779Z,22.23
2022-09-13T08:50:09.514Z,22.25
2022-09-13T08:52:35.990Z,22.29
2022-09-13T08:55:03.219Z,22.32
2022-09-13T08:57:29.737Z,22.38
2022-09-13T08:59:56.377Z,22.40
2022-09-13T09:02:23.607Z,22.40
2022-09-13T09:04:51.046Z,22.43
2022-09-13T09:07:17.382Z,22.48
2022-09-13T09:09:45.426Z,22.57
2022-09-13T09:12:12.071Z,23.04
2022-09-13T09:14:38.438Z,23.20
2022-09-13T09:17:05.608Z,23.21
2022-09-13T09:19:31.871Z,23.07
2022-09-13T09:21:58.166Z,22.98
2022-09-13T09:24:25.871Z,22.99
2022-09-13T09:26:52.197Z,23.05
2022-09-13T09:29:21.815Z,23.09
2022-09-13T09:31:53.866Z,23.09
2022-09-13T09:34:20.155Z,23.12
2022-09-13T09:36:46.643Z,23.13
2022-09-13T09:39:13.004Z,23.19
2022-09-13T09:41:39.542Z,23.23
2022-09-13T09:44:07.508Z,23.25
2022-09-13T09:46:33.934Z,23.29
2022-09-13T09:49:02.579Z,23.32
2022-09-13T09:51:28.898Z,23.37
2022-09-13T09:53:55.242Z,23.42
2022-09-13T09:56:21.513Z,23.49
2022-09-13T09:58:47.851Z,23.59
2022-09-13T10:01:14.117Z,23.69
2022-09-13T10:03:42.113Z,23.78
2022-09-13T10:06:08.521Z,23.83
2022-09-13T10:08:34.794Z,23.95
2022-09-13T10:11:01.590Z,24.02
2022-09-13T10:13:31.780Z,24.03
2022-09-13T10:15:58.480Z,24.03
2022-09-13T10:21:12.224Z,24.06
2022-09-13T10:23:38.480Z,24.08
2022-09-13T10:26:04.978Z,24.11
2022-09-13T10:28:32.001Z,24.15
2022-09-13T10:30:58.432Z,24.16
2022-09-13T10:33:24.929Z,24.16
2022-09-13T10:35:51.577Z,24.21
2022-09-13T10:38:18.127Z,24.18
2022-09-13T10:40:44.450Z,24.19
2022-09-13T10:43:11.282Z,24.20
2022-09-13T10:45:37.693Z,24.20
2022-09-13T10:48:04.275Z,24.17
2022-09-13T10:50:31.022Z,24.15
2022-09-13T10:52:57.682Z,24.14
2022-09-13T10:55:23.975Z,24.21
2022-09-13T10:57:50.250Z,24.23
2022-09-13T11:00:16.776Z,24.24
2022-09-13T11:02:43.209Z,24.29
2022-09-13T11:05:10.061Z,24.34
2022-09-13T11:07:36.322Z,24.39
2022-09-13T11:10:02.800Z,24.44
2022-09-13T11:12:29.138Z,24.48
2022-09-13T11:14:55.443Z,24.54
2022-09-13T11:17:21.761Z,24.58
2022-09-13T11:19:48.053Z,24.61
2022-09-13T11:22:15.296Z,24.68
2022-09-13T11:24:43.652Z,24.70
2022-09-13T11:27:10.016Z,24.73
2022-09-13T11:29:37.453Z,24.76
2022-09-13T11:32:04.193Z,24.79
2022-09-13T11:34:33.401Z,24.80
2022-09-13T11:37:04.655Z,24.81
2022-09-13T11:39:31.079Z,24.81
2022-09-13T11:41:58.812Z,24.84
2022-09-13T11:44:25.296Z,24.86
2022-09-13T11:46:51.976Z,24.88
2022-09-13T11:49:18.645Z,24.91
2022-09-13T11:51:46.224Z,24.94
2022-09-13T11:54:12.612Z,24.92
2022-09-13T11:56:39.514Z,24.92
2022-09-13T11:59:06.601Z,24.98
2022-09-13T12:01:41.965Z,25.02
2022-09-13T12:04:25.529Z,25.04
2022-09-13T12:06:56.030Z,25.07
2022-09-13T12:09:23.266Z,25.07
2022-09-13T12:11:49.783Z,25.04
2022-09-13T12:14:16.252Z,25.07
2022-09-13T12:16:42.856Z,25.10
2022-09-13T12:19:10.414Z,25.10
2022-09-13T12:21:36.920Z,25.13
2022-09-13T12:24:03.323Z,25.11
2022-09-13T12:26:29.989Z,25.10
2022-09-13T12:28:57.179Z,25.12
2022-09-13T12:31:23.626Z,25.12
2022-09-13T12:33:50.423Z,25.11
2022-09-13T12:36:18.103Z,25.12
2022-09-13T12:38:44.454Z,25.13
2022-09-13T12:41:10.825Z,25.13
2022-09-13T12:43:37.142Z,25.15
2022-09-13T12:46:06.541Z,25.16
2022-09-13T12:48:33.884Z,25.18
2022-09-13T12:51:03.276Z,25.22
2022-09-13T12:53:30.369Z,25.21
2022-09-13T12:55:56.681Z,25.22
2022-09-13T12:58:24.313Z,25.21
2022-09-13T13:00:51.293Z,25.21
2022-09-13T13:03:17.989Z,25.21
2022-09-13T13:05:45.009Z,25.22
2022-09-13T13:08:12.863Z,25.23
2022-09-13T13:10:39.170Z,25.23
2022-09-13T13:13:05.959Z,25.21
2022-09-13T13:15:35.387Z,25.22
2022-09-13T13:18:03.075Z,25.21
2022-09-13T13:20:29.598Z,25.20
2022-09-13T13:22:55.824Z,25.21
2022-09-13T13:25:22.058Z,25.23
2022-09-13T13:27:48.863Z,25.20
2022-09-13T13:30:15.222Z,25.19
2022-09-13T13:32:41.674Z,25.16
2022-09-13T13:35:08.567Z,25.13
2022-09-13T13:37:34.939Z,25.10
2022-09-13T13:40:01.559Z,25.07
2022-09-13T13:42:28.013Z,25.04
2022-09-13T13:44:54.299Z,25.03
2022-09-13T13:47:22.064Z,24.90
2022-09-13T13:49:48.538Z,24.98
2022-09-13T13:52:15.075Z,24.90
2022-09-13T13:54:41.360Z,24.98
2022-09-13T13:57:11.107Z,25.00
2022-09-13T13:59:37.907Z,25.02
2022-09-13T14:02:06.044Z,25.03
2022-09-13T14:04:32.398Z,25.02
2022-09-13T14:07:03.110Z,25.03
2022-09-13T14:09:36.927Z,25.06
2022-09-13T14:12:03.253Z,25.07
2022-09-13T14:14:30.915Z,25.08
2022-09-13T14:16:57.187Z,25.10
2022-09-13T14:19:23.664Z,25.10
2022-09-13T14:21:50.080Z,25.10
2022-09-13T14:24:16.924Z,25.13
2022-09-13T14:26:43.357Z,25.16
2022-09-13T14:29:10.041Z,25.18
2022-09-13T14:31:38.103Z,25.23
2022-09-13T14:34:05.122Z,25.23
2022-09-13T14:36:31.383Z,25.22
2022-09-13T14:38:57.683Z,25.23
2022-09-13T14:41:23.945Z,25.24
2022-09-13T14:43:52.599Z,25.25
2022-09-13T14:46:19.540Z,25.26
2022-09-13T14:48:46.289Z,25.26
2022-09-13T14:51:12.867Z,25.27
2022-09-13T14:53:39.250Z,25.29
2022-09-13T14:56:06.789Z,25.29
2022-09-13T14:58:34.131Z,25.30
2022-09-13T15:01:00.684Z,25.30
2022-09-13T15:03:27.115Z,25.31
2022-09-13T15:05:53.516Z,25.29
2022-09-13T15:08:25.302Z,25.28
2022-09-13T15:10:51.794Z,25.29
2022-09-13T15:13:19.304Z,25.29
2022-09-13T15:15:45.641Z,25.29
2022-09-13T15:18:11.988Z,25.28
2022-09-13T15:20:38.604Z,25.28
2022-09-13T15:23:05.195Z,25.28
2022-09-13T15:25:31.512Z,25.28
2022-09-13T15:27:57.882Z,25.28
2022-09-13T15:30:24.141Z,25.29
2022-09-13T15:32:50.400Z,25.30
2022-09-13T15:35:17.696Z,25.30
2022-09-13T15:37:44.481Z,25.29
2022-09-13T15:40:14.643Z,25.29
2022-09-13T15:42:40.991Z,25.26
2022-09-13T15:45:09.171Z,25.25
2022-09-13T15:47:35.443Z,25.23
2022-09-13T15:50:01.838Z,25.23
2022-09-13T15:52:28.163Z,25.21
2022-09-13T15:54:54.414Z,25.18
2022-09-13T15:57:20.741Z,25.15
2022-09-13T15:59:47.105Z,25.14
2022-09-13T16:02:14.071Z,25.12
2022-09-13T16:04:40.385Z,25.12
2022-09-13T16:07:06.624Z,25.12
2022-09-13T16:09:33.036Z,25.09
2022-09-13T16:11:59.317Z,25.07
2022-09-13T16:14:26.241Z,25.03
2022-09-13T16:16:52.689Z,25.01
2022-09-13T16:19:19.071Z,24.98
2022-09-13T16:21:45.430Z,24.97
2022-09-13T16:24:12.294Z,24.96
2022-09-13T16:26:39.817Z,24.94
2022-09-13T16:29:06.881Z,24.91
2022-09-13T16:34:22.152Z,24.88
2022-09-13T16:36:48.727Z,24.87
2022-09-13T16:39:15.138Z,24.86
2022-09-13T16:41:42.416Z,24.83
2022-09-13T16:44:09.116Z,24.81
2022-09-13T16:46:35.760Z,24.79
2022-09-13T16:49:02.286Z,24.77
2022-09-13T16:51:30.601Z,24.74
2022-09-13T16:53:56.910Z,24.71
2022-09-13T16:56:23.664Z,24.69
2022-09-13T16:58:49.999Z,24.65
2022-09-13T17:01:16.752Z,24.63
2022-09-13T17:03:43.516Z,24.62
2022-09-13T17:06:09.899Z,24.60
2022-09-13T17:08:36.281Z,24.55
2022-09-13T17:11:02.632Z,24.51
2022-09-13T17:13:29.940Z,24.48
2022-09-13T17:15:56.988Z,24.45
2022-09-13T17:18:23.386Z,24.42
2022-09-13T17:20:49.762Z,24.39
2022-09-13T17:23:17.368Z,24.35
2022-09-13T17:25:44.099Z,24.32
2022-09-13T17:28:10.669Z,24.29
2022-09-13T17:30:37.232Z,24.27
2022-09-13T17:33:04.319Z,24.25
2022-09-13T17:35:30.696Z,24.23
2022-09-13T17:37:56.928Z,24.21
2022-09-13T17:40:24.106Z,24.18
2022-09-13T17:42:50.565Z,24.16
2022-09-13T17:45:16.860Z,24.13
2022-09-13T17:47:43.240Z,24.11
2022-09-13T17:50:10.473Z,24.09
2022-09-13T17:52:36.901Z,24.06
2022-09-13T17:55:03.353Z,24.04
2022-09-13T17:57:30.783Z,24.00
2022-09-13T17:59:57.688Z,23.98
2022-09-13T18:02:24.585Z,23.96
2022-09-13T18:04:51.416Z,23.94
2022-09-13T18:07:17.955Z,23.90
2022-09-13T18:09:44.821Z,23.88
2022-09-13T18:12:11.323Z,23.85
2022-09-13T18:14:37.709Z,23.81
2022-09-13T18:17:04.062Z,23.78
2022-09-13T18:19:45.309Z,23.73
2022-09-13T18:22:12.678Z,23.67
2022-09-13T18:24:38.955Z,23.62
2022-09-13T18:27:05.310Z,23.57
2022-09-13T18:29:32.241Z,23.53
2022-09-13T18:31:58.598Z,23.48
2022-09-13T18:34:27.851Z,23.47
2022-09-13T18:36:54.253Z,23.44
2022-09-13T18:39:20.631Z,23.42
2022-09-13T18:41:47.103Z,23.41
2022-09-13T18:44:13.443Z,23.39
2022-09-13T18:46:39.902Z,23.37
2022-09-13T18:49:07.167Z,23.35
2022-09-13T18:51:33.455Z,23.34
2022-09-13T18:54:00.747Z,23.29
2022-09-13T18:56:27.058Z,23.29
2022-09-13T18:58:53.491Z,23.27
2022-09-13T19:01:20.962Z,23.23
2022-09-13T19:03:47.417Z,23.20
2022-09-13T19:06:14.809Z,23.18
2022-09-13T19:08:41.231Z,23.15
2022-09-13T19:11:19.154Z,23.12
2022-09-13T19:13:54.940Z,23.09
2022-09-13T19:16:21.621Z,23.04
2022-09-13T19:18:47.934Z,23.00
2022-09-13T19:21:15.333Z,22.98
2022-09-13T19:23:58.440Z,22.95
2022-09-13T19:26:27.138Z,22.94
2022-09-13T19:28:53.942Z,22.94
2022-09-13T19:31:20.445Z,22.92
2022-09-13T19:33:46.980Z,22.90
2022-09-13T19:36:15.299Z,22.88
2022-09-13T19:38:42.432Z,22.87
2022-09-13T19:41:08.750Z,22.84
2022-09-13T19:43:35.237Z,22.82
2022-09-13T19:46:01.664Z,22.81
2022-09-13T19:48:38.684Z,22.80
2022-09-13T19:51:06.386Z,22.78
2022-09-13T19:53:55.438Z,22.79
2022-09-13T19:56:19.073Z,22.83
2022-09-13T19:58:45.691Z,22.86
2022-09-13T20:01:12.103Z,22.88
2022-09-13T20:03:39.119Z,22.92
2022-09-13T20:06:05.574Z,22.95
2022-09-13T20:08:32.017Z,22.96
2022-09-13T20:10:59.085Z,22.97
2022-09-13T20:13:26.039Z,22.99
2022-09-13T20:15:52.343Z,23.00
2022-09-13T20:18:19.234Z,23.01
2022-09-13T20:20:45.528Z,23.02
2022-09-13T20:23:12.045Z,23.02
2022-09-13T20:25:38.538Z,23.03
2022-09-13T20:28:04.982Z,23.04
2022-09-13T20:30:31.428Z,23.04
2022-09-13T20:32:57.735Z,23.05
2022-09-13T20:35:24.304Z,23.07
2022-09-13T20:37:50.536Z,23.06
2022-09-13T20:40:17.200Z,23.06
2022-09-13T20:42:43.536Z,23.07
2022-09-13T20:45:12.901Z,23.07
2022-09-13T20:47:39.163Z,23.09
2022-09-13T20:50:12.774Z,23.09
2022-09-13T20:58:26.783Z,23.08
2022-09-13T21:00:56.307Z,23.08
2022-09-13T21:03:22.769Z,23.09
2022-09-13T21:05:49.934Z,23.09
2022-09-13T21:08:18.616Z,23.09
2022-09-13T21:10:45.402Z,23.10
2022-09-13T21:13:12.027Z,23.10
2022-09-13T21:15:39.916Z,23.10
2022-09-13T21:18:06.869Z,23.11
2022-09-13T21:20:34.170Z,23.10
2022-09-13T21:23:01.502Z,23.11
2022-09-13T21:25:28.667Z,23.10
2022-09-13T21:27:56.129Z,23.09
2022-09-13T21:30:22.851Z,23.09
2022-09-13T21:32:49.216Z,23.09
2022-09-13T21:35:15.494Z,23.09
2022-09-13T21:37:41.807Z,23.08
2022-09-13T21:40:08.806Z,23.09
2022-09-13T21:42:35.214Z,23.08
2022-09-13T21:45:01.675Z,23.07
2022-09-13T21:47:27.957Z,23.08
2022-09-13T21:49:54.294Z,23.08
2022-09-13T21:52:20.547Z,23.07
2022-09-13T21:54:46.862Z,23.07
2022-09-13T21:57:13.137Z,23.06
2022-09-13T21:59:39.386Z,23.04
2022-09-13T22:02:07.190Z,22.99
2022-09-13T22:04:33.496Z,22.94
2022-09-13T22:06:59.856Z,22.88
2022-09-13T22:09:26.599Z,22.82
2022-09-13T22:11:52.881Z,22.78
2022-09-13T22:14:19.211Z,22.73
2022-09-13T22:16:45.628Z,22.69
2022-09-13T22:19:12.030Z,22.65
2022-09-13T22:21:38.425Z,22.61
2022-09-13T22:24:05.551Z,22.56
2022-09-13T22:26:31.855Z,22.52
2022-09-13T22:28:58.273Z,22.48
2022-09-13T22:31:24.843Z,22.45
2022-09-13T22:33:51.427Z,22.41
2022-09-13T22:36:17.823Z,22.37
2022-09-13T22:38:44.155Z,22.34
2022-09-13T22:41:10.474Z,22.30
2022-09-13T22:43:37.669Z,22.28
2022-09-13T22:46:04.321Z,22.24
2022-09-13T22:48:31.215Z,22.21
2022-09-13T22:50:58.823Z,22.18
2022-09-13T22:53:25.638Z,22.15
2022-09-13T22:55:52.103Z,22.10
2022-09-13T22:58:18.882Z,22.08
2022-09-13T23:00:46.229Z,22.05
2022-09-13T23:03:12.626Z,22.03
2022-09-13T23:05:39.960Z,22.01
2022-09-13T23:08:06.624Z,21.99
2022-09-13T23:10:33.036Z,21.96
2022-09-13T23:12:59.463Z,21.94
2022-09-13T23:15:26.268Z,21.91
2022-09-13T23:17:54.009Z,21.90
2022-09-13T23:20:20.604Z,21.88
2022-09-13T23:22:46.958Z,21.85
2022-09-13T23:25:13.310Z,21.82
2022-09-13T23:27:39.654Z,21.81
2022-09-13T23:30:05.955Z,21.78
2022-09-13T23:32:37.400Z,21.75
2022-09-13T23:35:14.693Z,21.73
2022-09-13T23:37:46.115Z,21.71
2022-09-13T23:40:12.560Z,21.69
2022-09-13T23:42:39.074Z,21.67
2022-09-13T23:45:05.439Z,21.65
2022-09-13T23:47:31.940Z,21.63
2022-09-13T23:50:01.430Z,21.62
2022-09-13T23:52:27.771Z,21.59
2022-09-13T23:54:54.150Z,21.59
2022-09-13T23:57:20.928Z,21.57
2022-09-13T23:59:47.296Z,21.54
